Linda — OJML — position and weather

sailwx.info

Track history (hours):
 
Tides and Currents Weather Stations Pressure Air Temp Water Temp Dewpoint Dewpoint Depression Visibility Wind Speed Wind Dir Waves Ship Positions

Linda

Last reported at 2016-Feb-12 23:33 UTC. Time now 2016-Feb-13 00:33 UTC.
Position N 54°60' E 013°43'.

Length 141 m; draft 8.6 m.

Type: Ship (hazmat cat A). MMSI: 230984000.

Date/timePositionNaut miles runAvg speedWind from/ knotsBaromVisibWave heightAir tempDewpointWater temp
2016-Feb-12 23:33N 54°60' E 013°43'1616.4
2016-Feb-12 22:33N 55°06' E 014°09'1716.9
2016-Feb-12 21:33N 55°20' E 014°27'1616.4
2016-Feb-12 20:33N 55°31' E 014°49'1616.3
2016-Feb-12 19:33N 55°39' E 015°14'356 7.9
2016-Feb-10 22:21N 59°39' E 023°24'1317.0
2016-Feb-10 21:33N 59°43' E 023°49'66 3.4
2016-Feb-10 02:10N 59°57' E 025°57'1112.6
2016-Feb-10 01:16N 59°60' E 026°20'912.6
2016-Feb-10 00:33N 60°01' E 026°37'4911.6
2016-Feb-09 20:17N 60°08' E 028°16'912.1
2016-Feb-09 19:32N 60°03' E 028°31'3410.6
2016-Feb-09 16:22N 60°00' E 029°39'2 0.2
2016-Feb-09 05:32N 59°59' E 029°43'14 9.4
2016-Feb-09 04:05N 60°02' E 029°16'916.0
2016-Feb-09 03:32N 60°02' E 028°58'1616.9
2016-Feb-09 02:33N 60°03' E 028°25'1616.0
2016-Feb-09 01:33N 60°10' E 027°56'1615.8
2016-Feb-09 00:33N 60°05' E 027°26'2115.9
2016-Feb-08 23:14N 59°59' E 026°45'7117.5
2016-Feb-08 19:10N 59°43' E 024°26'372 8.3
2016-Feb-06 22:34N 55°42' E 015°36'1716.6
2016-Feb-06 21:33N 55°33' E 015°11'1717.0
2016-Feb-06 20:34N 55°25' E 014°45'1716.7
2016-Feb-06 19:34N 55°12' E 014°25'1716.7
2016-Feb-06 18:33N 55°01' E 014°04'1717.1
2016-Feb-06 17:33N 54°54' E 013°37'3216.1
2016-Feb-06 15:33N 54°42' E 012°45'1616.2
2016-Feb-06 14:34N 54°33' E 012°22'1515.0
2016-Feb-06 13:33N 54°24' E 012°01'1515.1
2016-Feb-06 12:34N 54°28' E 011°35'1616.0
2016-Feb-06 11:34N 54°34' E 011°10'1615.8
2016-Feb-06 10:34N 54°34' E 010°43'1615.7
2016-Feb-06 09:33N 54°29' E 010°17'9 8.6
2016-Feb-06 08:33N 54°22' E 010°08'3 3.1
2016-Feb-06 07:33N 54°22' E 010°03'8 8.0
2016-Feb-06 06:33N 54°22' E 009°49'8 8.0
2016-Feb-06 05:33N 54°17' E 009°38'24 5.9
2016-Feb-06 01:33N 53°58' E 009°15'5 5.3
2016-Feb-06 00:33N 53°54' E 009°09'2 2.3
2016-Feb-05 23:33N 53°53' E 009°05'1312.9
2016-Feb-05 22:33N 53°52' E 008°43'1515.2
2016-Feb-05 21:34N 53°59' E 008°21'1615.6
2016-Feb-05 20:33N 53°58' E 007°54'1717.4
2016-Feb-05 19:34N 53°55' E 007°26'1817.6
2016-Feb-05 18:33N 53°50' E 006°57'1817.8
2016-Feb-05 17:33N 53°45' E 006°28'1817.9
2016-Feb-05 16:34N 53°39' E 005°59'1818.4
2016-Feb-05 15:34N 53°34' E 005°29'1818.1
2016-Feb-05 14:33N 53°28' E 005°00'4017.2
2016-Feb-05 12:13N 52°56' E 004°19'1217.5
2016-Feb-05 11:33N 52°46' E 004°10'1716.9
2016-Feb-05 10:33N 52°32' E 003°55'1616.6
2016-Feb-05 09:34N 52°16' E 003°52'1414.0
2016-Feb-05 08:33N 52°02' E 003°56'1615.5
2016-Feb-05 07:33N 51°54' E 004°18'5 4.7
2016-Feb-05 06:34N 51°53' E 004°25'0 0.0
2016-Feb-05 05:30N 51°53' E 004°25'0 0.0
2016-Feb-05 04:33N 51°53' E 004°25'0 0.0
2016-Feb-05 03:33N 51°53' E 004°25'0 0.0
2016-Feb-05 02:33N 51°53' E 004°25'0 0.0
2016-Feb-05 01:33N 51°53' E 004°25'0 0.0
2016-Feb-05 00:33N 51°53' E 004°25'0 0.0
2016-Feb-04 23:33N 51°53' E 004°25'0 0.0
2016-Feb-04 22:33N 51°53' E 004°25'0 0.0
2016-Feb-04 21:30N 51°53' E 004°25'0 0.0
2016-Feb-04 20:33N 51°53' E 004°25'0 0.0
2016-Feb-04 19:33N 51°53' E 004°25'0 0.0
2016-Feb-04 18:33N 51°53' E 004°25'0 0.0
2016-Feb-04 17:33N 51°53' E 004°25'0 0.0
2016-Feb-04 16:33N 51°53' E 004°25'0 0.0
2016-Feb-04 15:34N 51°53' E 004°25'6 5.5
2016-Feb-04 14:34N 51°54' E 004°16'1312.6
2016-Feb-04 13:34N 52°00' E 003°58'1211.9
2016-Feb-04 12:33N 52°04' E 003°40'7416.7
2016-Feb-04 08:07N 52°50' E 002°05'1017.0
2016-Feb-04 07:34N 52°56' E 001°53'1717.2
2016-Feb-04 06:33N 53°07' E 001°31'1916.8
2016-Feb-04 05:25N 53°21' E 001°08'3216.7
2016-Feb-04 03:31N 53°47' E 000°38'1717.2
2016-Feb-04 02:33N 53°59' E 000°19'1817.6
2016-Feb-04 01:33N 54°12' W 000°01'1817.7
2016-Feb-04 00:34N 54°25' W 000°22'1817.6
2016-Feb-03 23:32N 54°36' W 000°47'1313.3
2016-Feb-03 22:33N 54°38' W 001°09'2 2.0
2016-Feb-03 21:32N 54°36' W 001°09'0 0.0
2016-Feb-03 20:20N 54°36' W 001°09'0 0.0
2016-Feb-03 19:26N 54°36' W 001°09'0 0.0
2016-Feb-03 17:23N 54°36' W 001°09'0 0.0
2016-Feb-03 16:29N 54°36' W 001°09'0 0.0
2016-Feb-03 15:29N 54°36' W 001°09'0 0.0
2016-Feb-03 14:32N 54°36' W 001°09'0 0.0
2016-Feb-03 11:17N 54°36' W 001°09'0 0.0
2016-Feb-03 10:05N 54°36' W 001°09'0 0.0
2016-Feb-03 09:20N 54°36' W 001°09'0 0.0
2016-Feb-03 07:20N 54°36' W 001°09'0 0.0
2016-Feb-03 05:26N 54°36' W 001°09'0 0.0
2016-Feb-03 04:26N 54°36' W 001°09'0 0.0
2016-Feb-03 03:11N 54°36' W 001°09'0 0.0
2016-Feb-03 02:32N 54°36' W 001°09'5 5.5
2016-Feb-03 01:33N 54°41' W 001°05'3 3.4
2016-Feb-03 00:33N 54°44' W 001°07'  
Track history (hours):
 
Tides and Currents Weather Stations Pressure Air Temp Water Temp Dewpoint Dewpoint Depression Visibility Wind Speed Wind Dir Waves Ship Positions

Linda

Last reported at 2016-Feb-12 23:33 UTC. Time now 2016-Feb-13 00:33 UTC.
Position N 54°60' E 013°43'.

Length 141 m; draft 8.6 m.

Type: Ship (hazmat cat A). MMSI: 230984000.

Date/timePositionNaut miles runAvg speedWind from/ knotsBaromVisibWave heightAir tempDewpointWater temp
2016-Feb-12 23:33N 54°60' E 013°43'1616.4
2016-Feb-12 22:33N 55°06' E 014°09'1716.9
2016-Feb-12 21:33N 55°20' E 014°27'1616.4
2016-Feb-12 20:33N 55°31' E 014°49'1616.3
2016-Feb-12 19:33N 55°39' E 015°14'356 7.9
2016-Feb-10 22:21N 59°39' E 023°24'1317.0
2016-Feb-10 21:33N 59°43' E 023°49'66 3.4
2016-Feb-10 02:10N 59°57' E 025°57'1112.6
2016-Feb-10 01:16N 59°60' E 026°20'912.6
2016-Feb-10 00:33N 60°01' E 026°37'4911.6
2016-Feb-09 20:17N 60°08' E 028°16'912.1
2016-Feb-09 19:32N 60°03' E 028°31'3410.6
2016-Feb-09 16:22N 60°00' E 029°39'2 0.2
2016-Feb-09 05:32N 59°59' E 029°43'14 9.4
2016-Feb-09 04:05N 60°02' E 029°16'916.0
2016-Feb-09 03:32N 60°02' E 028°58'1616.9
2016-Feb-09 02:33N 60°03' E 028°25'1616.0
2016-Feb-09 01:33N 60°10' E 027°56'1615.8
2016-Feb-09 00:33N 60°05' E 027°26'2115.9
2016-Feb-08 23:14N 59°59' E 026°45'7117.5
2016-Feb-08 19:10N 59°43' E 024°26'372 8.3
2016-Feb-06 22:34N 55°42' E 015°36'1716.6
2016-Feb-06 21:33N 55°33' E 015°11'1717.0
2016-Feb-06 20:34N 55°25' E 014°45'1716.7
2016-Feb-06 19:34N 55°12' E 014°25'1716.7
2016-Feb-06 18:33N 55°01' E 014°04'1717.1
2016-Feb-06 17:33N 54°54' E 013°37'3216.1
2016-Feb-06 15:33N 54°42' E 012°45'1616.2
2016-Feb-06 14:34N 54°33' E 012°22'1515.0
2016-Feb-06 13:33N 54°24' E 012°01'1515.1
2016-Feb-06 12:34N 54°28' E 011°35'1616.0
2016-Feb-06 11:34N 54°34' E 011°10'1615.8
2016-Feb-06 10:34N 54°34' E 010°43'1615.7
2016-Feb-06 09:33N 54°29' E 010°17'9 8.6
2016-Feb-06 08:33N 54°22' E 010°08'3 3.1
2016-Feb-06 07:33N 54°22' E 010°03'8 8.0
2016-Feb-06 06:33N 54°22' E 009°49'8 8.0
2016-Feb-06 05:33N 54°17' E 009°38'24 5.9
2016-Feb-06 01:33N 53°58' E 009°15'5 5.3
2016-Feb-06 00:33N 53°54' E 009°09'2 2.3
2016-Feb-05 23:33N 53°53' E 009°05'1312.9
2016-Feb-05 22:33N 53°52' E 008°43'1515.2
2016-Feb-05 21:34N 53°59' E 008°21'1615.6
2016-Feb-05 20:33N 53°58' E 007°54'1717.4
2016-Feb-05 19:34N 53°55' E 007°26'1817.6
2016-Feb-05 18:33N 53°50' E 006°57'1817.8
2016-Feb-05 17:33N 53°45' E 006°28'1817.9
2016-Feb-05 16:34N 53°39' E 005°59'1818.4
2016-Feb-05 15:34N 53°34' E 005°29'1818.1
2016-Feb-05 14:33N 53°28' E 005°00'4017.2
2016-Feb-05 12:13N 52°56' E 004°19'1217.5
2016-Feb-05 11:33N 52°46' E 004°10'1716.9
2016-Feb-05 10:33N 52°32' E 003°55'1616.6
2016-Feb-05 09:34N 52°16' E 003°52'1414.0
2016-Feb-05 08:33N 52°02' E 003°56'1615.5
2016-Feb-05 07:33N 51°54' E 004°18'5 4.7
2016-Feb-05 06:34N 51°53' E 004°25'0 0.0
2016-Feb-05 05:30N 51°53' E 004°25'0 0.0
2016-Feb-05 04:33N 51°53' E 004°25'0 0.0
2016-Feb-05 03:33N 51°53' E 004°25'0 0.0
2016-Feb-05 02:33N 51°53' E 004°25'0 0.0
2016-Feb-05 01:33N 51°53' E 004°25'0 0.0
2016-Feb-05 00:33N 51°53' E 004°25'0 0.0
2016-Feb-04 23:33N 51°53' E 004°25'0 0.0
2016-Feb-04 22:33N 51°53' E 004°25'0 0.0
2016-Feb-04 21:30N 51°53' E 004°25'0 0.0
2016-Feb-04 20:33N 51°53' E 004°25'0 0.0
2016-Feb-04 19:33N 51°53' E 004°25'0 0.0
2016-Feb-04 18:33N 51°53' E 004°25'0 0.0
2016-Feb-04 17:33N 51°53' E 004°25'0 0.0
2016-Feb-04 16:33N 51°53' E 004°25'0 0.0
2016-Feb-04 15:34N 51°53' E 004°25'6 5.5
2016-Feb-04 14:34N 51°54' E 004°16'1312.6
2016-Feb-04 13:34N 52°00' E 003°58'1211.9
2016-Feb-04 12:33N 52°04' E 003°40'7416.7
2016-Feb-04 08:07N 52°50' E 002°05'1017.0
2016-Feb-04 07:34N 52°56' E 001°53'1717.2
2016-Feb-04 06:33N 53°07' E 001°31'1916.8
2016-Feb-04 05:25N 53°21' E 001°08'3216.7
2016-Feb-04 03:31N 53°47' E 000°38'1717.2
2016-Feb-04 02:33N 53°59' E 000°19'1817.6
2016-Feb-04 01:33N 54°12' W 000°01'1817.7
2016-Feb-04 00:34N 54°25' W 000°22'1817.6
2016-Feb-03 23:32N 54°36' W 000°47'1313.3
2016-Feb-03 22:33N 54°38' W 001°09'2 2.0
2016-Feb-03 21:32N 54°36' W 001°09'0 0.0
2016-Feb-03 20:20N 54°36' W 001°09'0 0.0
2016-Feb-03 19:26N 54°36' W 001°09'0 0.0
2016-Feb-03 17:23N 54°36' W 001°09'0 0.0
2016-Feb-03 16:29N 54°36' W 001°09'0 0.0
2016-Feb-03 15:29N 54°36' W 001°09'0 0.0
2016-Feb-03 14:32N 54°36' W 001°09'0 0.0
2016-Feb-03 11:17N 54°36' W 001°09'0 0.0
2016-Feb-03 10:05N 54°36' W 001°09'0 0.0
2016-Feb-03 09:20N 54°36' W 001°09'0 0.0
2016-Feb-03 07:20N 54°36' W 001°09'0 0.0
2016-Feb-03 05:26N 54°36' W 001°09'0 0.0
2016-Feb-03 04:26N 54°36' W 001°09'0 0.0
2016-Feb-03 03:11N 54°36' W 001°09'0 0.0
2016-Feb-03 02:32N 54°36' W 001°09'5 5.5
2016-Feb-03 01:33N 54°41' W 001°05'3 3.4
2016-Feb-03 00:33N 54°44' W 001°07'  

Dump ship's entire track history